sensor_id;sensor_type;location;lat;lon;timestamp;P1;durP1;ratioP1;P2;durP2;ratioP2
78053;SDS011;67726;45.636;11.752;2023-04-03T00:01:34;26.75;;;15.30;;
78053;SDS011;67726;45.636;11.752;2023-04-03T00:04:01;23.13;;;14.13;;
78053;SDS011;67726;45.636;11.752;2023-04-03T00:06:27;25.55;;;14.68;;
78053;SDS011;67726;45.636;11.752;2023-04-03T00:08:53;21.73;;;13.97;;
78053;SDS011;67726;45.636;11.752;2023-04-03T00:11:18;25.77;;;14.40;;
78053;SDS011;67726;45.636;11.752;2023-04-03T00:13:45;23.50;;;14.32;;
78053;SDS011;67726;45.636;11.752;2023-04-03T00:16:11;22.70;;;13.43;;
78053;SDS011;67726;45.636;11.752;2023-04-03T00:18:38;21.90;;;13.52;;
78053;SDS011;67726;45.636;11.752;2023-04-03T00:21:04;22.60;;;13.98;;
78053;SDS011;67726;45.636;11.752;2023-04-03T00:23:31;23.27;;;13.45;;
78053;SDS011;67726;45.636;11.752;2023-04-03T00:25:57;22.92;;;13.38;;
78053;SDS011;67726;45.636;11.752;2023-04-03T00:28:23;21.30;;;13.87;;
78053;SDS011;67726;45.636;11.752;2023-04-03T00:30:49;23.77;;;14.15;;
78053;SDS011;67726;45.636;11.752;2023-04-03T00:33:15;21.20;;;13.00;;
78053;SDS011;67726;45.636;11.752;2023-04-03T00:35:41;21.50;;;12.43;;
78053;SDS011;67726;45.636;11.752;2023-04-03T00:38:06;18.42;;;11.88;;
78053;SDS011;67726;45.636;11.752;2023-04-03T00:40:33;20.97;;;11.30;;
78053;SDS011;67726;45.636;11.752;2023-04-03T00:43:10;17.88;;;11.07;;
78053;SDS011;67726;45.636;11.752;2023-04-03T00:45:39;20.55;;;11.00;;
78053;SDS011;67726;45.636;11.752;2023-04-03T00:48:07;17.33;;;10.07;;
78053;SDS011;67726;45.636;11.752;2023-04-03T00:50:38;22.60;;;11.97;;
78053;SDS011;67726;45.636;11.752;2023-04-03T00:53:06;17.88;;;11.48;;
78053;SDS011;67726;45.636;11.752;2023-04-03T00:55:34;20.00;;;11.35;;
78053;SDS011;67726;45.636;11.752;2023-04-03T00:58:01;19.73;;;11.13;;
78053;SDS011;67726;45.636;11.752;2023-04-03T01:00:27;20.83;;;10.98;;
78053;SDS011;67726;45.636;11.752;2023-04-03T01:02:53;20.20;;;11.73;;
78053;SDS011;67726;45.636;11.752;2023-04-03T01:05:19;19.33;;;10.90;;
78053;SDS011;67726;45.636;11.752;2023-04-03T01:07:46;19.63;;;11.00;;
78053;SDS011;67726;45.636;11.752;2023-04-03T01:10:15;21.05;;;11.27;;
78053;SDS011;67726;45.636;11.752;2023-04-03T01:12:43;22.77;;;11.50;;
78053;SDS011;67726;45.636;11.752;2023-04-03T01:15:11;18.33;;;10.07;;
78053;SDS011;67726;45.636;11.752;2023-04-03T01:22:41;15.30;;;9.20;;
78053;SDS011;67726;45.636;11.752;2023-04-03T01:25:22;15.82;;;8.98;;
78053;SDS011;67726;45.636;11.752;2023-04-03T01:27:48;16.98;;;9.60;;
78053;SDS011;67726;45.636;11.752;2023-04-03T01:30:14;16.90;;;9.38;;
78053;SDS011;67726;45.636;11.752;2023-04-03T01:32:43;16.00;;;9.40;;
78053;SDS011;67726;45.636;11.752;2023-04-03T01:35:09;19.13;;;9.65;;
78053;SDS011;67726;45.636;11.752;2023-04-03T01:37:35;13.13;;;8.40;;
78053;SDS011;67726;45.636;11.752;2023-04-03T01:40:01;15.18;;;8.00;;
78053;SDS011;67726;45.636;11.752;2023-04-03T01:42:28;13.70;;;8.07;;
78053;SDS011;67726;45.636;11.752;2023-04-03T01:44:54;12.88;;;7.97;;
78053;SDS011;67726;45.636;11.752;2023-04-03T01:47:20;13.43;;;7.78;;
78053;SDS011;67726;45.636;11.752;2023-04-03T01:49:46;13.02;;;7.60;;
78053;SDS011;67726;45.636;11.752;2023-04-03T01:52:12;13.97;;;8.00;;
78053;SDS011;67726;45.636;11.752;2023-04-03T01:54:38;12.27;;;7.43;;
78053;SDS011;67726;45.636;11.752;2023-04-03T01:57:03;14.67;;;8.33;;
78053;SDS011;67726;45.636;11.752;2023-04-03T01:59:29;15.13;;;8.20;;
78053;SDS011;67726;45.636;11.752;2023-04-03T02:01:55;13.80;;;8.40;;
78053;SDS011;67726;45.636;11.752;2023-04-03T02:04:20;13.60;;;8.50;;
78053;SDS011;67726;45.636;11.752;2023-04-03T02:06:46;17.07;;;8.50;;
78053;SDS011;67726;45.636;11.752;2023-04-03T02:09:12;16.33;;;8.18;;
78053;SDS011;67726;45.636;11.752;2023-04-03T02:11:37;13.77;;;7.77;;
78053;SDS011;67726;45.636;11.752;2023-04-03T02:14:03;14.10;;;7.95;;
78053;SDS011;67726;45.636;11.752;2023-04-03T02:16:29;13.73;;;8.23;;
78053;SDS011;67726;45.636;11.752;2023-04-03T02:18:55;15.13;;;7.93;;
78053;SDS011;67726;45.636;11.752;2023-04-03T02:21:21;15.32;;;8.73;;
78053;SDS011;67726;45.636;11.752;2023-04-03T02:23:47;14.30;;;8.23;;
78053;SDS011;67726;45.636;11.752;2023-04-03T02:26:14;13.20;;;8.60;;
78053;SDS011;67726;45.636;11.752;2023-04-03T02:28:40;13.77;;;7.45;;
78053;SDS011;67726;45.636;11.752;2023-04-03T02:31:06;13.38;;;7.22;;
78053;SDS011;67726;45.636;11.752;2023-04-03T02:33:33;11.40;;;6.70;;
78053;SDS011;67726;45.636;11.752;2023-04-03T02:36:01;12.57;;;6.03;;
78053;SDS011;67726;45.636;11.752;2023-04-03T02:38:28;9.75;;;5.22;;
78053;SDS011;67726;45.636;11.752;2023-04-03T02:40:59;9.48;;;5.25;;
78053;SDS011;67726;45.636;11.752;2023-04-03T02:43:26;8.77;;;5.15;;
78053;SDS011;67726;45.636;11.752;2023-04-03T02:45:52;9.43;;;5.13;;
78053;SDS011;67726;45.636;11.752;2023-04-03T02:48:17;12.77;;;5.00;;
78053;SDS011;67726;45.636;11.752;2023-04-03T02:50:43;9.00;;;4.90;;
78053;SDS011;67726;45.636;11.752;2023-04-03T02:53:09;7.85;;;4.60;;
78053;SDS011;67726;45.636;11.752;2023-04-03T02:55:35;9.10;;;4.70;;
78053;SDS011;67726;45.636;11.752;2023-04-03T02:58:00;10.43;;;4.90;;
78053;SDS011;67726;45.636;11.752;2023-04-03T03:00:26;8.93;;;5.30;;
78053;SDS011;67726;45.636;11.752;2023-04-03T03:02:51;11.20;;;5.63;;
78053;SDS011;67726;45.636;11.752;2023-04-03T03:05:17;9.43;;;5.80;;
78053;SDS011;67726;45.636;11.752;2023-04-03T03:07:43;12.23;;;6.07;;
78053;SDS011;67726;45.636;11.752;2023-04-03T03:10:08;10.80;;;5.90;;
78053;SDS011;67726;45.636;11.752;2023-04-03T03:12:34;11.55;;;5.70;;
78053;SDS011;67726;45.636;11.752;2023-04-03T03:15:00;14.83;;;6.50;;
78053;SDS011;67726;45.636;11.752;2023-04-03T03:17:26;10.07;;;6.00;;
78053;SDS011;67726;45.636;11.752;2023-04-03T03:19:51;10.23;;;6.20;;
78053;SDS011;67726;45.636;11.752;2023-04-03T03:22:17;9.40;;;5.75;;
78053;SDS011;67726;45.636;11.752;2023-04-03T03:24:43;11.77;;;5.70;;
78053;SDS011;67726;45.636;11.752;2023-04-03T03:27:08;11.32;;;5.65;;
78053;SDS011;67726;45.636;11.752;2023-04-03T03:29:34;12.50;;;5.03;;
78053;SDS011;67726;45.636;11.752;2023-04-03T03:32:00;10.63;;;5.67;;
78053;SDS011;67726;45.636;11.752;2023-04-03T03:34:25;11.23;;;5.60;;
78053;SDS011;67726;45.636;11.752;2023-04-03T03:36:51;10.20;;;5.20;;
78053;SDS011;67726;45.636;11.752;2023-04-03T03:39:16;11.35;;;5.60;;
78053;SDS011;67726;45.636;11.752;2023-04-03T03:41:42;8.50;;;4.90;;
78053;SDS011;67726;45.636;11.752;2023-04-03T03:44:08;9.50;;;4.97;;
78053;SDS011;67726;45.636;11.752;2023-04-03T03:46:33;8.73;;;5.80;;
78053;SDS011;67726;45.636;11.752;2023-04-03T03:48:59;9.55;;;5.00;;
78053;SDS011;67726;45.636;11.752;2023-04-03T03:51:25;8.50;;;4.70;;
78053;SDS011;67726;45.636;11.752;2023-04-03T03:53:50;8.82;;;4.68;;
78053;SDS011;67726;45.636;11.752;2023-04-03T03:56:16;14.23;;;5.73;;
78053;SDS011;67726;45.636;11.752;2023-04-03T03:58:42;9.30;;;5.57;;
78053;SDS011;67726;45.636;11.752;2023-04-03T04:01:07;11.23;;;5.03;;
78053;SDS011;67726;45.636;11.752;2023-04-03T04:03:33;10.67;;;5.43;;
78053;SDS011;67726;45.636;11.752;2023-04-03T04:05:59;9.25;;;5.07;;
78053;SDS011;67726;45.636;11.752;2023-04-03T04:08:25;10.15;;;5.53;;
78053;SDS011;67726;45.636;11.752;2023-04-03T04:10:50;11.20;;;5.40;;
78053;SDS011;67726;45.636;11.752;2023-04-03T04:13:16;11.30;;;5.80;;
78053;SDS011;67726;45.636;11.752;2023-04-03T04:15:42;12.23;;;5.50;;
78053;SDS011;67726;45.636;11.752;2023-04-03T04:18:08;12.20;;;5.50;;
78053;SDS011;67726;45.636;11.752;2023-04-03T04:20:34;12.15;;;5.78;;
78053;SDS011;67726;45.636;11.752;2023-04-03T04:23:00;11.87;;;5.30;;
78053;SDS011;67726;45.636;11.752;2023-04-03T04:25:25;13.97;;;5.33;;
78053;SDS011;67726;45.636;11.752;2023-04-03T04:27:51;8.80;;;5.00;;
78053;SDS011;67726;45.636;11.752;2023-04-03T04:30:17;11.13;;;5.63;;
78053;SDS011;67726;45.636;11.752;2023-04-03T04:32:42;12.02;;;5.65;;
78053;SDS011;67726;45.636;11.752;2023-04-03T04:35:08;9.47;;;4.90;;
78053;SDS011;67726;45.636;11.752;2023-04-03T04:37:34;9.68;;;4.85;;
78053;SDS011;67726;45.636;11.752;2023-04-03T04:40:00;9.73;;;5.13;;
78053;SDS011;67726;45.636;11.752;2023-04-03T04:42:26;8.55;;;4.63;;
78053;SDS011;67726;45.636;11.752;2023-04-03T04:44:52;10.03;;;4.60;;
78053;SDS011;67726;45.636;11.752;2023-04-03T04:47:18;11.90;;;4.43;;
78053;SDS011;67726;45.636;11.752;2023-04-03T04:49:43;11.90;;;5.40;;
78053;SDS011;67726;45.636;11.752;2023-04-03T04:52:09;8.43;;;4.80;;
78053;SDS011;67726;45.636;11.752;2023-04-03T04:54:35;10.43;;;4.73;;
78053;SDS011;67726;45.636;11.752;2023-04-03T04:57:00;10.23;;;4.50;;
78053;SDS011;67726;45.636;11.752;2023-04-03T04:59:26;11.67;;;4.67;;
78053;SDS011;67726;45.636;11.752;2023-04-03T05:01:52;8.87;;;4.37;;
78053;SDS011;67726;45.636;11.752;2023-04-03T05:04:17;12.15;;;4.95;;
78053;SDS011;67726;45.636;11.752;2023-04-03T05:06:43;8.57;;;4.23;;
78053;SDS011;67726;45.636;11.752;2023-04-03T05:09:09;14.15;;;5.63;;
78053;SDS011;67726;45.636;11.752;2023-04-03T05:11:35;14.43;;;5.47;;
78053;SDS011;67726;45.636;11.752;2023-04-03T05:14:01;11.83;;;5.07;;
78053;SDS011;67726;45.636;11.752;2023-04-03T05:16:26;11.90;;;5.43;;
78053;SDS011;67726;45.636;11.752;2023-04-03T05:18:52;9.73;;;5.00;;
78053;SDS011;67726;45.636;11.752;2023-04-03T05:21:18;12.50;;;4.78;;
78053;SDS011;67726;45.636;11.752;2023-04-03T05:23:43;9.97;;;4.40;;
78053;SDS011;67726;45.636;11.752;2023-04-03T05:26:09;11.60;;;4.95;;
78053;SDS011;67726;45.636;11.752;2023-04-03T05:28:35;12.90;;;4.93;;
78053;SDS011;67726;45.636;11.752;2023-04-03T05:31:01;11.98;;;5.15;;
78053;SDS011;67726;45.636;11.752;2023-04-03T05:33:27;14.20;;;5.18;;
78053;SDS011;67726;45.636;11.752;2023-04-03T05:35:53;12.33;;;5.30;;
78053;SDS011;67726;45.636;11.752;2023-04-03T05:38:19;10.85;;;4.70;;
78053;SDS011;67726;45.636;11.752;2023-04-03T05:40:45;8.18;;;4.35;;
78053;SDS011;67726;45.636;11.752;2023-04-03T05:43:11;8.35;;;4.38;;
78053;SDS011;67726;45.636;11.752;2023-04-03T05:45:37;6.63;;;4.10;;
78053;SDS011;67726;45.636;11.752;2023-04-03T05:48:02;7.80;;;3.72;;
78053;SDS011;67726;45.636;11.752;2023-04-03T05:50:28;8.20;;;3.13;;
78053;SDS011;67726;45.636;11.752;2023-04-03T05:52:55;7.68;;;3.83;;
78053;SDS011;67726;45.636;11.752;2023-04-03T05:55:23;8.70;;;3.53;;
78053;SDS011;67726;45.636;11.752;2023-04-03T05:57:49;8.30;;;4.40;;
78053;SDS011;67726;45.636;11.752;2023-04-03T06:00:15;7.85;;;3.50;;
78053;SDS011;67726;45.636;11.752;2023-04-03T06:02:41;9.02;;;3.63;;
78053;SDS011;67726;45.636;11.752;2023-04-03T06:05:08;11.40;;;4.10;;
78053;SDS011;67726;45.636;11.752;2023-04-03T06:07:36;7.18;;;3.35;;
78053;SDS011;67726;45.636;11.752;2023-04-03T06:10:02;9.10;;;3.80;;
78053;SDS011;67726;45.636;11.752;2023-04-03T06:12:28;8.68;;;3.42;;
78053;SDS011;67726;45.636;11.752;2023-04-03T06:14:54;8.15;;;3.25;;
78053;SDS011;67726;45.636;11.752;2023-04-03T06:17:20;9.47;;;3.77;;
78053;SDS011;67726;45.636;11.752;2023-04-03T06:19:46;6.97;;;3.58;;
78053;SDS011;67726;45.636;11.752;2023-04-03T06:22:12;9.07;;;3.42;;
78053;SDS011;67726;45.636;11.752;2023-04-03T06:24:39;10.00;;;3.90;;
78053;SDS011;67726;45.636;11.752;2023-04-03T06:27:05;8.00;;;3.80;;
78053;SDS011;67726;45.636;11.752;2023-04-03T06:29:31;7.35;;;3.35;;
78053;SDS011;67726;45.636;11.752;2023-04-03T06:31:56;8.70;;;3.37;;
78053;SDS011;67726;45.636;11.752;2023-04-03T06:34:23;8.60;;;3.50;;
78053;SDS011;67726;45.636;11.752;2023-04-03T06:36:49;7.05;;;3.30;;
78053;SDS011;67726;45.636;11.752;2023-04-03T06:39:16;7.45;;;3.20;;
78053;SDS011;67726;45.636;11.752;2023-04-03T06:41:45;6.97;;;3.20;;
78053;SDS011;67726;45.636;11.752;2023-04-03T06:44:11;7.00;;;3.20;;
78053;SDS011;67726;45.636;11.752;2023-04-03T06:46:38;6.60;;;3.25;;
78053;SDS011;67726;45.636;11.752;2023-04-03T06:49:04;9.87;;;3.20;;
78053;SDS011;67726;45.636;11.752;2023-04-03T06:51:32;6.32;;;2.67;;
78053;SDS011;67726;45.636;11.752;2023-04-03T06:53:58;13.65;;;3.55;;
78053;SDS011;67726;45.636;11.752;2023-04-03T06:56:25;8.57;;;2.97;;
78053;SDS011;67726;45.636;11.752;2023-04-03T06:58:52;7.60;;;3.00;;
78053;SDS011;67726;45.636;11.752;2023-04-03T07:01:23;8.77;;;3.00;;
78053;SDS011;67726;45.636;11.752;2023-04-03T07:03:51;6.70;;;2.90;;
78053;SDS011;67726;45.636;11.752;2023-04-03T07:06:17;7.22;;;3.20;;
78053;SDS011;67726;45.636;11.752;2023-04-03T07:08:43;8.05;;;2.92;;
78053;SDS011;67726;45.636;11.752;2023-04-03T07:11:10;6.17;;;3.27;;
78053;SDS011;67726;45.636;11.752;2023-04-03T07:13:37;12.30;;;4.07;;
78053;SDS011;67726;45.636;11.752;2023-04-03T07:16:03;7.10;;;3.63;;
78053;SDS011;67726;45.636;11.752;2023-04-03T07:18:30;8.27;;;3.72;;
78053;SDS011;67726;45.636;11.752;2023-04-03T07:20:57;8.45;;;3.22;;
78053;SDS011;67726;45.636;11.752;2023-04-03T07:23:23;6.00;;;3.10;;
78053;SDS011;67726;45.636;11.752;2023-04-03T07:25:50;11.23;;;3.08;;
78053;SDS011;67726;45.636;11.752;2023-04-03T07:28:17;7.57;;;2.95;;
78053;SDS011;67726;45.636;11.752;2023-04-03T07:30:44;6.15;;;2.70;;
78053;SDS011;67726;45.636;11.752;2023-04-03T07:33:16;9.25;;;3.42;;
78053;SDS011;67726;45.636;11.752;2023-04-03T07:35:43;7.07;;;3.23;;
78053;SDS011;67726;45.636;11.752;2023-04-03T07:38:09;7.40;;;2.78;;
78053;SDS011;67726;45.636;11.752;2023-04-03T07:40:35;8.18;;;3.22;;
78053;SDS011;67726;45.636;11.752;2023-04-03T07:43:02;9.52;;;4.05;;
78053;SDS011;67726;45.636;11.752;2023-04-03T07:45:28;10.30;;;3.72;;
78053;SDS011;67726;45.636;11.752;2023-04-03T07:47:53;6.17;;;2.60;;
78053;SDS011;67726;45.636;11.752;2023-04-03T07:50:20;9.18;;;3.22;;
78053;SDS011;67726;45.636;11.752;2023-04-03T07:52:46;11.63;;;3.40;;
78053;SDS011;67726;45.636;11.752;2023-04-03T07:55:12;8.27;;;2.80;;
78053;SDS011;67726;45.636;11.752;2023-04-03T07:57:38;10.50;;;2.93;;
78053;SDS011;67726;45.636;11.752;2023-04-03T08:00:04;8.90;;;3.47;;
78053;SDS011;67726;45.636;11.752;2023-04-03T08:02:30;7.70;;;2.75;;
78053;SDS011;67726;45.636;11.752;2023-04-03T08:04:57;6.72;;;2.67;;
78053;SDS011;67726;45.636;11.752;2023-04-03T08:07:23;7.47;;;2.63;;
78053;SDS011;67726;45.636;11.752;2023-04-03T08:09:49;8.07;;;3.10;;
78053;SDS011;67726;45.636;11.752;2023-04-03T08:12:15;13.33;;;2.83;;
78053;SDS011;67726;45.636;11.752;2023-04-03T08:14:41;9.00;;;3.38;;
78053;SDS011;67726;45.636;11.752;2023-04-03T08:17:07;7.45;;;2.67;;
78053;SDS011;67726;45.636;11.752;2023-04-03T08:19:37;7.28;;;3.10;;
78053;SDS011;67726;45.636;11.752;2023-04-03T08:22:06;7.87;;;3.00;;
78053;SDS011;67726;45.636;11.752;2023-04-03T08:24:32;7.55;;;3.08;;
78053;SDS011;67726;45.636;11.752;2023-04-03T08:26:59;5.65;;;2.88;;
78053;SDS011;67726;45.636;11.752;2023-04-03T08:29:25;8.55;;;2.55;;
78053;SDS011;67726;45.636;11.752;2023-04-03T08:31:50;7.67;;;3.33;;
78053;SDS011;67726;45.636;11.752;2023-04-03T08:34:16;8.48;;;3.10;;
78053;SDS011;67726;45.636;11.752;2023-04-03T08:36:43;10.55;;;3.33;;
78053;SDS011;67726;45.636;11.752;2023-04-03T08:39:09;7.80;;;2.40;;
78053;SDS011;67726;45.636;11.752;2023-04-03T08:49:53;7.53;;;2.30;;
78053;SDS011;67726;45.636;11.752;2023-04-03T08:54:54;6.93;;;2.95;;
78053;SDS011;67726;45.636;11.752;2023-04-03T08:57:29;9.60;;;2.78;;
78053;SDS011;67726;45.636;11.752;2023-04-03T09:00:00;9.57;;;2.90;;
78053;SDS011;67726;45.636;11.752;2023-04-03T09:02:56;6.78;;;2.38;;
78053;SDS011;67726;45.636;11.752;2023-04-03T09:10:44;10.50;;;2.55;;
78053;SDS011;67726;45.636;11.752;2023-04-03T09:13:17;8.30;;;2.47;;
78053;SDS011;67726;45.636;11.752;2023-04-03T09:15:55;6.80;;;2.30;;
78053;SDS011;67726;45.636;11.752;2023-04-03T09:18:40;7.35;;;2.78;;
78053;SDS011;67726;45.636;11.752;2023-04-03T09:24:00;5.93;;;2.42;;
78053;SDS011;67726;45.636;11.752;2023-04-03T09:26:30;8.67;;;2.53;;
78053;SDS011;67726;45.636;11.752;2023-04-03T09:29:02;8.73;;;2.83;;
78053;SDS011;67726;45.636;11.752;2023-04-03T09:31:38;9.68;;;3.30;;
78053;SDS011;67726;45.636;11.752;2023-04-03T09:34:08;7.00;;;2.72;;
78053;SDS011;67726;45.636;11.752;2023-04-03T09:36:50;5.63;;;2.58;;
78053;SDS011;67726;45.636;11.752;2023-04-03T09:39:18;7.27;;;2.33;;
78053;SDS011;67726;45.636;11.752;2023-04-03T09:42:13;5.75;;;2.60;;
78053;SDS011;67726;45.636;11.752;2023-04-03T09:44:40;7.60;;;2.80;;
78053;SDS011;67726;45.636;11.752;2023-04-03T09:49:49;6.32;;;2.70;;
78053;SDS011;67726;45.636;11.752;2023-04-03T09:52:19;6.40;;;2.50;;
78053;SDS011;67726;45.636;11.752;2023-04-03T09:54:49;5.10;;;2.63;;
78053;SDS011;67726;45.636;11.752;2023-04-03T09:57:15;8.00;;;2.40;;
78053;SDS011;67726;45.636;11.752;2023-04-03T09:59:44;5.97;;;2.43;;
78053;SDS011;67726;45.636;11.752;2023-04-03T10:02:38;8.25;;;2.65;;
78053;SDS011;67726;45.636;11.752;2023-04-03T10:05:25;7.03;;;2.50;;
78053;SDS011;67726;45.636;11.752;2023-04-03T10:08:07;6.25;;;2.55;;
78053;SDS011;67726;45.636;11.752;2023-04-03T10:10:33;6.82;;;3.05;;
78053;SDS011;67726;45.636;11.752;2023-04-03T10:15:42;4.68;;;2.42;;
78053;SDS011;67726;45.636;11.752;2023-04-03T10:18:55;5.72;;;2.67;;
78053;SDS011;67726;45.636;11.752;2023-04-03T10:21:26;6.88;;;2.60;;
78053;SDS011;67726;45.636;11.752;2023-04-03T10:24:14;5.80;;;2.30;;
78053;SDS011;67726;45.636;11.752;2023-04-03T10:26:56;7.87;;;2.70;;
78053;SDS011;67726;45.636;11.752;2023-04-03T10:29:52;6.90;;;2.50;;
78053;SDS011;67726;45.636;11.752;2023-04-03T10:46:41;6.38;;;2.70;;
78053;SDS011;67726;45.636;11.752;2023-04-03T10:54:54;9.60;;;2.70;;
78053;SDS011;67726;45.636;11.752;2023-04-03T10:57:29;9.15;;;3.17;;
78053;SDS011;67726;45.636;11.752;2023-04-03T11:00:06;6.53;;;3.00;;
78053;SDS011;67726;45.636;11.752;2023-04-03T11:02:45;6.63;;;2.95;;
78053;SDS011;67726;45.636;11.752;2023-04-03T11:07:57;7.43;;;3.20;;
78053;SDS011;67726;45.636;11.752;2023-04-03T11:10:37;6.78;;;3.40;;
78053;SDS011;67726;45.636;11.752;2023-04-03T11:13:10;8.00;;;3.20;;
78053;SDS011;67726;45.636;11.752;2023-04-03T11:15:40;9.63;;;3.08;;
78053;SDS011;67726;45.636;11.752;2023-04-03T11:18:12;9.40;;;3.40;;
78053;SDS011;67726;45.636;11.752;2023-04-03T11:20:44;7.20;;;2.87;;
78053;SDS011;67726;45.636;11.752;2023-04-03T11:23:39;6.63;;;2.80;;
78053;SDS011;67726;45.636;11.752;2023-04-03T11:26:16;8.23;;;3.10;;
78053;SDS011;67726;45.636;11.752;2023-04-03T11:28:43;7.15;;;2.88;;
78053;SDS011;67726;45.636;11.752;2023-04-03T11:36:32;6.57;;;3.17;;
78053;SDS011;67726;45.636;11.752;2023-04-03T11:42:12;8.40;;;3.20;;
78053;SDS011;67726;45.636;11.752;2023-04-03T11:44:51;6.20;;;3.10;;
78053;SDS011;67726;45.636;11.752;2023-04-03T11:50:45;9.48;;;3.85;;
78053;SDS011;67726;45.636;11.752;2023-04-03T11:58:14;9.07;;;3.42;;
78053;SDS011;67726;45.636;11.752;2023-04-03T12:03:30;10.73;;;3.53;;
78053;SDS011;67726;45.636;11.752;2023-04-03T12:14:19;10.30;;;2.95;;
78053;SDS011;67726;45.636;11.752;2023-04-03T12:22:10;7.85;;;3.55;;
78053;SDS011;67726;45.636;11.752;2023-04-03T12:40:06;6.68;;;2.80;;
78053;SDS011;67726;45.636;11.752;2023-04-03T12:45:24;6.55;;;2.83;;
78053;SDS011;67726;45.636;11.752;2023-04-03T12:47:52;8.10;;;3.20;;
78053;SDS011;67726;45.636;11.752;2023-04-03T12:50:23;9.30;;;2.92;;
78053;SDS011;67726;45.636;11.752;2023-04-03T12:55:29;6.23;;;2.80;;
78053;SDS011;67726;45.636;11.752;2023-04-03T12:57:56;9.90;;;3.00;;
78053;SDS011;67726;45.636;11.752;2023-04-03T13:02:59;6.70;;;2.90;;
78053;SDS011;67726;45.636;11.752;2023-04-03T13:05:27;7.30;;;3.30;;
78053;SDS011;67726;45.636;11.752;2023-04-03T13:08:01;11.57;;;3.92;;
78053;SDS011;67726;45.636;11.752;2023-04-03T13:10:30;7.15;;;3.53;;
78053;SDS011;67726;45.636;11.752;2023-04-03T13:12:58;7.07;;;2.97;;
78053;SDS011;67726;45.636;11.752;2023-04-03T13:15:44;6.80;;;3.30;;
78053;SDS011;67726;45.636;11.752;2023-04-03T13:21:00;6.65;;;3.60;;
78053;SDS011;67726;45.636;11.752;2023-04-03T13:23:32;7.10;;;3.15;;
78053;SDS011;67726;45.636;11.752;2023-04-03T13:26:01;7.78;;;3.60;;
78053;SDS011;67726;45.636;11.752;2023-04-03T13:28:28;5.43;;;3.00;;
78053;SDS011;67726;45.636;11.752;2023-04-03T13:31:07;7.05;;;3.20;;
78053;SDS011;67726;45.636;11.752;2023-04-03T13:33:39;6.20;;;3.08;;
78053;SDS011;67726;45.636;11.752;2023-04-03T13:36:19;6.13;;;3.17;;
78053;SDS011;67726;45.636;11.752;2023-04-03T13:39:34;5.85;;;3.50;;
78053;SDS011;67726;45.636;11.752;2023-04-03T13:41:40;6.53;;;2.73;;
78053;SDS011;67726;45.636;11.752;2023-04-03T13:44:15;6.05;;;3.00;;
78053;SDS011;67726;45.636;11.752;2023-04-03T13:46:40;6.80;;;3.45;;
78053;SDS011;67726;45.636;11.752;2023-04-03T13:49:58;6.75;;;3.10;;
78053;SDS011;67726;45.636;11.752;2023-04-03T13:51:55;5.97;;;3.43;;
78053;SDS011;67726;45.636;11.752;2023-04-03T13:54:23;7.38;;;3.13;;
78053;SDS011;67726;45.636;11.752;2023-04-03T13:57:00;5.85;;;3.30;;
78053;SDS011;67726;45.636;11.752;2023-04-03T13:59:28;6.43;;;3.47;;
78053;SDS011;67726;45.636;11.752;2023-04-03T14:04:28;8.40;;;2.83;;
78053;SDS011;67726;45.636;11.752;2023-04-03T14:07:12;6.57;;;3.42;;
78053;SDS011;67726;45.636;11.752;2023-04-03T14:09:39;6.03;;;3.05;;
78053;SDS011;67726;45.636;11.752;2023-04-03T14:12:05;7.83;;;3.40;;
78053;SDS011;67726;45.636;11.752;2023-04-03T14:14:36;8.13;;;3.30;;
78053;SDS011;67726;45.636;11.752;2023-04-03T14:17:09;7.15;;;3.45;;
78053;SDS011;67726;45.636;11.752;2023-04-03T14:19:41;6.68;;;3.97;;
78053;SDS011;67726;45.636;11.752;2023-04-03T14:22:12;9.80;;;4.00;;
78053;SDS011;67726;45.636;11.752;2023-04-03T14:24:57;9.57;;;3.47;;
78053;SDS011;67726;45.636;11.752;2023-04-03T14:27:24;7.32;;;3.00;;
78053;SDS011;67726;45.636;11.752;2023-04-03T14:29:59;7.28;;;2.80;;
78053;SDS011;67726;45.636;11.752;2023-04-03T14:32:28;6.05;;;2.55;;
78053;SDS011;67726;45.636;11.752;2023-04-03T14:34:54;10.20;;;3.40;;
78053;SDS011;67726;45.636;11.752;2023-04-03T14:37:24;12.47;;;5.53;;
78053;SDS011;67726;45.636;11.752;2023-04-03T14:39:53;8.52;;;3.42;;
78053;SDS011;67726;45.636;11.752;2023-04-03T14:42:30;7.90;;;2.85;;
78053;SDS011;67726;45.636;11.752;2023-04-03T14:45:00;6.78;;;2.72;;
78053;SDS011;67726;45.636;11.752;2023-04-03T14:47:28;8.27;;;2.50;;
78053;SDS011;67726;45.636;11.752;2023-04-03T14:49:55;12.53;;;2.20;;
78053;SDS011;67726;45.636;11.752;2023-04-03T14:52:27;10.23;;;2.60;;
78053;SDS011;67726;45.636;11.752;2023-04-03T14:54:54;8.32;;;2.72;;
78053;SDS011;67726;45.636;11.752;2023-04-03T14:57:21;9.50;;;2.10;;
78053;SDS011;67726;45.636;11.752;2023-04-03T14:59:50;8.18;;;2.00;;
78053;SDS011;67726;45.636;11.752;2023-04-03T15:04:41;8.20;;;2.20;;
78053;SDS011;67726;45.636;11.752;2023-04-03T15:07:07;6.70;;;1.90;;
78053;SDS011;67726;45.636;11.752;2023-04-03T15:09:34;9.15;;;2.17;;
78053;SDS011;67726;45.636;11.752;2023-04-03T15:12:01;8.05;;;2.10;;
78053;SDS011;67726;45.636;11.752;2023-04-03T15:14:27;9.07;;;2.40;;
78053;SDS011;67726;45.636;11.752;2023-04-03T15:16:53;9.27;;;2.03;;
78053;SDS011;67726;45.636;11.752;2023-04-03T15:19:18;8.60;;;1.80;;
78053;SDS011;67726;45.636;11.752;2023-04-03T15:21:44;11.40;;;2.30;;
78053;SDS011;67726;45.636;11.752;2023-04-03T15:24:10;7.73;;;2.10;;
78053;SDS011;67726;45.636;11.752;2023-04-03T15:26:36;10.98;;;2.00;;
78053;SDS011;67726;45.636;11.752;2023-04-03T15:29:03;11.55;;;2.17;;
78053;SDS011;67726;45.636;11.752;2023-04-03T15:31:29;7.85;;;2.60;;
78053;SDS011;67726;45.636;11.752;2023-04-03T15:33:55;7.30;;;2.13;;
78053;SDS011;67726;45.636;11.752;2023-04-03T15:36:21;8.43;;;2.50;;
78053;SDS011;67726;45.636;11.752;2023-04-03T15:38:46;7.53;;;3.07;;
78053;SDS011;67726;45.636;11.752;2023-04-03T15:41:12;9.00;;;2.92;;
78053;SDS011;67726;45.636;11.752;2023-04-03T15:43:38;9.53;;;2.97;;
78053;SDS011;67726;45.636;11.752;2023-04-03T15:46:03;7.00;;;2.55;;
78053;SDS011;67726;45.636;11.752;2023-04-03T15:48:29;10.00;;;3.58;;
78053;SDS011;67726;45.636;11.752;2023-04-03T15:50:55;8.13;;;3.47;;
78053;SDS011;67726;45.636;11.752;2023-04-03T15:53:22;7.32;;;2.85;;
78053;SDS011;67726;45.636;11.752;2023-04-03T15:55:47;8.88;;;3.20;;
78053;SDS011;67726;45.636;11.752;2023-04-03T15:58:13;9.67;;;3.40;;
78053;SDS011;67726;45.636;11.752;2023-04-03T16:00:38;12.48;;;2.85;;
78053;SDS011;67726;45.636;11.752;2023-04-03T16:03:07;13.10;;;3.93;;
78053;SDS011;67726;45.636;11.752;2023-04-03T16:05:36;12.07;;;3.30;;
78053;SDS011;67726;45.636;11.752;2023-04-03T16:08:03;9.20;;;2.58;;
78053;SDS011;67726;45.636;11.752;2023-04-03T16:10:30;10.55;;;3.40;;
78053;SDS011;67726;45.636;11.752;2023-04-03T16:12:56;9.23;;;3.17;;
78053;SDS011;67726;45.636;11.752;2023-04-03T16:15:22;8.70;;;3.30;;
78053;SDS011;67726;45.636;11.752;2023-04-03T16:17:49;9.35;;;3.00;;
78053;SDS011;67726;45.636;11.752;2023-04-03T16:20:15;10.02;;;2.40;;
78053;SDS011;67726;45.636;11.752;2023-04-03T16:22:43;6.95;;;2.30;;
78053;SDS011;67726;45.636;11.752;2023-04-03T16:25:10;6.20;;;2.35;;
78053;SDS011;67726;45.636;11.752;2023-04-03T16:27:36;7.20;;;2.10;;
78053;SDS011;67726;45.636;11.752;2023-04-03T16:30:03;6.57;;;1.92;;
78053;SDS011;67726;45.636;11.752;2023-04-03T16:32:30;5.85;;;2.00;;